Time;durP1;ratioP1;P1;durP2;ratioP2;P2;SDS_P1;SDS_P2;PMS_P1;PMS_P2;Temp;Humidity;BMP_temperature;BMP_pressure;BME280_temperature;BME280_humidity;BME280_pressure;Samples;Min_cycle;Max_cycle;Signal;HPM_P1;HPM_P2
2021/04/01 00:02:12;;;;;;;11.47;8.13;;;;;;;6.97;73.69;98334.38;5001615;28;20232;-66
2021/04/01 00:04:39;;;;;;;9.57;7.60;;;;;;;6.95;74.10;98331.84;5001099;28;20535;-66
2021/04/01 00:07:07;;;;;;;8.27;7.10;;;;;;;7.01;73.99;98332.28;4999372;28;20216;-67
2021/04/01 00:09:34;;;;;;;7.30;6.60;;;;;;;6.95;73.33;98328.41;4999687;28;20205;-66
2021/04/01 00:12:01;;;;;;;7.70;6.97;;;;;;;6.87;73.82;98326.41;5000740;28;20205;-66
2021/04/01 00:14:28;;;;;;;6.97;6.33;;;;;;;6.91;73.42;98322.53;5000213;28;20711;-65
2021/04/01 00:16:55;;;;;;;7.30;6.60;;;;;;;6.74;74.50;98324.00;5000422;28;20587;-64
2021/04/01 00:19:22;;;;;;;6.73;6.07;;;;;;;6.74;74.88;98315.28;5000603;28;20320;-65
2021/04/01 00:21:49;;;;;;;6.80;6.20;;;;;;;6.62;75.03;98306.63;5000873;28;20535;-66
2021/04/01 00:24:17;;;;;;;10.00;6.63;;;;;;;6.64;75.26;98312.59;5001600;28;20377;-67
2021/04/01 00:26:44;;;;;;;8.17;7.13;;;;;;;6.47;75.85;98312.22;4997403;28;20645;-65
2021/04/01 00:29:11;;;;;;;7.40;6.40;;;;;;;6.45;76.34;98314.16;4998316;28;20209;-66
2021/04/01 00:31:39;;;;;;;6.97;6.27;;;;;;;6.49;76.52;98314.72;4996641;28;20215;-66
2021/04/01 00:34:06;;;;;;;6.70;6.10;;;;;;;6.56;76.25;98307.97;4998409;28;20236;-66
2021/04/01 00:36:33;;;;;;;6.67;6.07;;;;;;;6.48;76.75;98313.91;4998143;28;20211;-67
2021/04/01 00:39:00;;;;;;;7.83;6.10;;;;;;;6.46;77.19;98299.19;4999353;28;20242;-66
2021/04/01 00:41:28;;;;;;;8.57;7.13;;;;;;;6.53;76.42;98300.31;5002378;28;20208;-67
2021/04/01 00:43:54;;;;;;;7.90;6.03;;;;;;;6.48;76.91;98300.75;5000724;28;20477;-67
2021/04/01 00:46:21;;;;;;;7.70;6.77;;;;;;;6.43;76.72;98299.44;5002952;28;20211;-66
2021/04/01 00:48:48;;;;;;;8.23;6.57;;;;;;;6.46;76.73;98300.03;5003774;28;20211;-64
2021/04/01 00:51:15;;;;;;;7.30;6.50;;;;;;;6.30;77.14;98299.66;5000120;28;20662;-67
2021/04/01 00:53:42;;;;;;;8.93;6.33;;;;;;;6.37;77.00;98293.75;5003753;28;20655;-66
2021/04/01 00:56:09;;;;;;;6.80;6.10;;;;;;;6.44;77.64;98295.84;5001514;28;20677;-66
2021/04/01 00:58:37;;;;;;;7.97;6.00;;;;;;;6.49;77.53;98288.38;4999516;28;20205;-66
2021/04/01 01:01:18;;;;;;;6.73;6.03;;;;;;;6.44;77.26;98282.69;5003394;28;20219;-66
2021/04/01 01:03:45;;;;;;;8.50;5.97;;;;;;;6.42;77.67;98276.72;5004166;28;20229;-66
2021/04/01 01:06:12;;;;;;;6.97;6.27;;;;;;;6.52;77.59;98282.84;5002532;28;20215;-67
2021/04/01 01:08:39;;;;;;;8.40;7.60;;;;;;;6.51;77.65;98284.69;5001544;28;20209;-67
2021/04/01 01:11:06;;;;;;;6.87;6.17;;;;;;;6.35;78.01;98285.16;5002955;28;20357;-68
2021/04/01 01:13:33;;;;;;;6.40;5.57;;;;;;;6.26;78.35;98277.19;4998502;28;20233;-66
2021/04/01 01:16:01;;;;;;;6.60;6.07;;;;;;;6.22;78.50;98281.84;5003165;28;20209;-65
2021/04/01 01:18:29;;;;;;;9.40;6.93;;;;;;;6.20;79.18;98270.63;5001855;28;20211;-65
2021/04/01 01:20:57;;;;;;;6.60;6.00;;;;;;;6.14;79.36;98271.16;5003167;28;20212;-64
2021/04/01 01:23:26;;;;;;;6.70;6.00;;;;;;;6.19;79.00;98271.59;5003025;28;20244;-65
2021/04/01 01:25:54;;;;;;;7.23;6.63;;;;;;;6.20;78.90;98270.63;5000266;28;20684;-66
2021/04/01 01:28:22;;;;;;;7.07;6.47;;;;;;;6.17;78.52;98271.75;5002368;28;20235;-66
2021/04/01 01:30:49;;;;;;;9.90;6.63;;;;;;;6.14;78.57;98268.53;5002149;28;20242;-66
2021/04/01 01:33:19;;;;;;;7.50;6.73;;;;;;;6.12;79.04;98267.81;4978741;28;704831;-66
2021/04/01 01:35:47;;;;;;;7.03;6.43;;;;;;;6.17;78.64;98263.00;4999214;28;20207;-68
2021/04/01 01:38:15;;;;;;;7.60;7.00;;;;;;;6.01;79.68;98264.28;5003574;28;20332;-68
2021/04/01 01:40:42;;;;;;;7.33;6.60;;;;;;;5.96;80.16;98266.44;5001110;28;20210;-66
2021/04/01 01:43:12;;;;;;;7.27;6.67;;;;;;;5.93;80.07;98271.97;5000022;28;20239;-67
2021/04/01 01:45:40;;;;;;;7.10;6.30;;;;;;;5.95;79.73;98264.78;5004747;28;20597;-65
2021/04/01 01:48:08;;;;;;;6.73;6.13;;;;;;;5.89;80.01;98260.03;5003381;28;20243;-65
2021/04/01 01:50:37;;;;;;;9.13;7.50;;;;;;;5.99;79.95;98252.19;5004547;28;20205;-64
2021/04/01 01:53:04;;;;;;;7.50;6.17;;;;;;;5.99;79.87;98254.81;5001928;28;20229;-66
2021/04/01 01:55:32;;;;;;;8.70;6.83;;;;;;;5.86;80.39;98249.75;5002662;28;20217;-67
2021/04/01 01:57:59;;;;;;;7.93;7.03;;;;;;;5.85;80.83;98250.69;5002208;28;20228;-65
2021/04/01 02:00:30;;;;;;;6.70;6.10;;;;;;;5.74;81.15;98249.00;5003835;28;20557;-65
2021/04/01 02:02:59;;;;;;;8.47;6.37;;;;;;;5.69;82.33;98238.84;5002194;28;20716;-66
2021/04/01 02:05:27;;;;;;;7.37;6.77;;;;;;;5.71;83.01;98249.25;5002260;28;20209;-65
2021/04/01 02:07:55;;;;;;;7.30;6.67;;;;;;;5.72;82.23;98243.03;5002410;28;20620;-66
2021/04/01 02:10:25;;;;;;;8.67;7.13;;;;;;;5.71;82.86;98238.72;5000802;28;20299;-67
2021/04/01 02:12:52;;;;;;;8.07;7.03;;;;;;;5.68;82.41;98247.69;5004222;28;20648;-66
2021/04/01 02:15:22;;;;;;;8.10;6.43;;;;;;;5.67;82.15;98242.53;5003066;28;20205;-66
2021/04/01 02:17:50;;;;;;;9.40;6.90;;;;;;;5.74;82.11;98236.66;5004160;28;20208;-65
2021/04/01 02:20:17;;;;;;;7.43;6.73;;;;;;;5.80;81.98;98235.31;5001006;28;20209;-65
2021/04/01 02:22:44;;;;;;;7.53;6.83;;;;;;;5.76;81.52;98237.34;5001395;28;20221;-66
2021/04/01 02:25:12;;;;;;;7.53;6.53;;;;;;;5.72;81.85;98241.22;5001268;28;20213;-64
2021/04/01 02:27:39;;;;;;;8.70;7.37;;;;;;;5.74;82.10;98236.66;5003062;28;20212;-67
2021/04/01 02:30:07;;;;;;;8.10;6.93;;;;;;;5.73;81.95;98237.63;5002641;28;20232;-66
2021/04/01 02:32:34;;;;;;;8.87;7.33;;;;;;;5.68;82.22;98241.56;5001971;28;20233;-65
2021/04/01 02:35:02;;;;;;;7.87;7.03;;;;;;;5.65;82.56;98240.88;5004092;28;20224;-66
2021/04/01 02:37:29;;;;;;;8.23;7.50;;;;;;;5.64;82.94;98241.00;5002626;28;20208;-65
2021/04/01 02:39:56;;;;;;;7.50;6.37;;;;;;;5.72;82.72;98243.03;5003085;28;20300;-66
2021/04/01 02:42:23;;;;;;;7.20;6.60;;;;;;;5.64;82.81;98235.75;5001251;28;20340;-66
2021/04/01 02:44:50;;;;;;;10.73;7.20;;;;;;;5.62;82.25;98240.31;5002510;28;20227;-67
2021/04/01 02:47:17;;;;;;;7.60;6.90;;;;;;;5.68;82.22;98236.31;5000866;28;20220;-66
2021/04/01 02:49:44;;;;;;;7.13;6.53;;;;;;;5.56;82.72;98238.19;4999657;28;20820;-65
2021/04/01 02:52:12;;;;;;;8.57;7.17;;;;;;;5.51;82.99;98235.94;5003001;28;20221;-67
2021/04/01 02:54:39;;;;;;;9.07;7.37;;;;;;;5.47;83.06;98235.34;4998543;28;20488;-65
2021/04/01 02:57:14;;;;;;;7.67;6.83;;;;;;;5.36;83.59;98240.63;5002147;28;20216;-69
2021/04/01 02:59:41;;;;;;;8.67;7.83;;;;;;;5.29;83.89;98236.84;4999817;28;20676;-67
2021/04/01 03:02:09;;;;;;;7.50;6.70;;;;;;;5.29;84.12;98236.84;5002801;28;20225;-66
2021/04/01 03:04:36;;;;;;;7.83;7.10;;;;;;;5.19;85.13;98239.38;4998437;28;20204;-66
2021/04/01 03:07:04;;;;;;;7.23;6.53;;;;;;;5.27;84.07;98236.97;5002930;28;20205;-67
2021/04/01 03:09:32;;;;;;;7.83;7.00;;;;;;;5.29;84.39;98232.41;5000851;28;20212;-65
2021/04/01 03:11:59;;;;;;;8.00;6.90;;;;;;;5.20;85.16;98227.91;4995723;28;20740;-65
2021/04/01 03:14:26;;;;;;;7.23;6.60;;;;;;;5.22;85.00;98233.88;5000043;28;20252;-67
2021/04/01 03:16:53;;;;;;;8.13;7.33;;;;;;;5.14;85.14;98234.50;4999702;28;20216;-67
2021/04/01 03:19:20;;;;;;;8.40;6.73;;;;;;;5.35;84.34;98233.72;5000760;28;20597;-66
2021/04/01 03:21:47;;;;;;;8.63;6.93;;;;;;;5.20;84.82;98236.63;4990595;28;20516;-66
2021/04/01 03:24:14;;;;;;;7.53;6.93;;;;;;;5.15;84.53;98233.56;4978702;28;21068;-68
2021/04/01 03:26:42;;;;;;;8.20;7.27;;;;;;;5.21;84.42;98235.69;4981032;28;20697;-69
2021/04/01 03:29:10;;;;;;;9.87;7.80;;;;;;;5.33;84.11;98230.38;4980443;28;20249;-65
2021/04/01 03:31:37;;;;;;;9.00;7.20;;;;;;;5.14;84.36;98226.63;4982291;28;20208;-70
2021/04/01 03:34:05;;;;;;;9.43;6.30;;;;;;;5.13;84.47;98219.72;4978544;28;20260;-67
2021/04/01 03:36:32;;;;;;;8.40;7.53;;;;;;;5.11;84.33;98221.59;4982764;28;20206;-68
2021/04/01 03:39:00;;;;;;;7.33;6.40;;;;;;;5.10;84.73;98219.09;4982247;28;20213;-68
2021/04/01 03:41:30;;;;;;;7.93;7.23;;;;;;;4.97;85.30;98216.63;4979446;28;20288;-68
2021/04/01 03:43:58;;;;;;;7.60;6.90;;;;;;;5.00;84.96;98217.22;4976729;28;20226;-65
2021/04/01 03:46:25;;;;;;;8.23;7.37;;;;;;;4.93;85.38;98216.88;4979174;28;20212;-66
2021/04/01 03:48:55;;;;;;;7.73;7.07;;;;;;;4.75;86.44;98216.53;4976802;28;20796;-69
2021/04/01 03:51:26;;;;;;;11.43;6.80;;;;;;;4.71;86.54;98222.16;4977110;28;20253;-66
2021/04/01 03:53:56;;;;;;;8.53;7.63;;;;;;;4.60;87.33;98220.38;4977347;28;20554;-67
2021/04/01 03:56:25;;;;;;;8.80;8.00;;;;;;;4.52;87.85;98223.59;4980682;28;20206;-66
2021/04/01 03:59:05;;;;;;;8.70;7.27;;;;;;;4.50;88.32;98225.53;4978346;28;20210;-67
2021/04/01 04:04:29;;;;;;;8.67;7.63;;;;;;;4.48;88.25;98216.94;4978217;28;20208;-67
2021/04/01 04:07:12;;;;;;;7.80;7.17;;;;;;;4.61;87.28;98222.88;4981617;28;20207;-65
2021/04/01 04:12:40;;;;;;;7.70;7.00;;;;;;;4.37;88.62;98228.25;4977688;28;20233;-69
2021/04/01 04:15:10;;;;;;;10.43;7.53;;;;;;;4.43;90.11;98221.72;4977107;28;20710;-64
2021/04/01 04:17:38;;;;;;;8.33;7.57;;;;;;;4.29;89.35;98223.59;4981822;28;20201;-65
2021/04/01 04:20:07;;;;;;;8.27;7.47;;;;;;;4.33;89.51;98229.44;4978900;28;20214;-66
2021/04/01 04:22:37;;;;;;;8.33;6.77;;;;;;;4.25;89.50;98226.59;4979113;28;20232;-67
2021/04/01 04:25:07;;;;;;;8.57;7.77;;;;;;;4.37;88.83;98219.56;4976066;28;20304;-69
2021/04/01 04:28:04;;;;;;;7.70;6.90;;;;;;;4.32;89.76;98225.97;4975987;28;20930;-67
2021/04/01 04:30:31;;;;;;;8.87;7.50;;;;;;;4.29;89.61;98231.47;4979042;28;20678;-70
2021/04/01 04:32:59;;;;;;;10.87;7.27;;;;;;;4.34;89.59;98218.81;4976467;28;20245;-65
2021/04/01 04:35:27;;;;;;;8.53;7.83;;;;;;;4.39;89.73;98225.53;4981642;28;20264;-67
2021/04/01 04:37:54;;;;;;;7.80;7.17;;;;;;;4.40;89.82;98214.06;4981392;28;20205;-69
2021/04/01 04:40:21;;;;;;;9.03;7.63;;;;;;;4.44;89.29;98215.50;4976455;28;20380;-68
2021/04/01 04:42:48;;;;;;;9.23;8.40;;;;;;;4.45;89.24;98210.13;4980554;28;20248;-68
2021/04/01 04:45:15;;;;;;;8.50;7.80;;;;;;;4.48;88.62;98216.94;4977802;28;20205;-71
2021/04/01 04:47:42;;;;;;;8.60;7.70;;;;;;;4.38;89.38;98215.97;4977979;28;20233;-67
2021/04/01 04:50:11;;;;;;;8.70;7.50;;;;;;;4.48;89.14;98212.50;4979611;28;20206;-68
2021/04/01 04:52:39;;;;;;;8.50;7.70;;;;;;;4.47;89.08;98220.50;4980751;28;20230;-67
2021/04/01 04:55:09;;;;;;;7.83;7.13;;;;;;;4.53;88.87;98221.81;4979573;28;20622;-67
2021/04/01 04:57:41;;;;;;;8.00;7.23;;;;;;;4.56;88.39;98225.03;4980373;28;20590;-67
2021/04/01 05:00:27;;;;;;;8.73;7.90;;;;;;;4.54;88.66;98219.06;4979456;28;20213;-69
2021/04/01 05:05:43;;;;;;;8.57;7.77;;;;;;;4.63;87.90;98214.91;4978266;28;20236;-67
2021/04/01 05:08:13;;;;;;;10.40;7.60;;;;;;;4.56;89.47;98221.59;4975992;28;20210;-68
2021/04/01 05:10:44;;;;;;;9.23;8.13;;;;;;;4.59;89.28;98222.16;4976268;28;20280;-68
2021/04/01 05:13:13;;;;;;;12.27;8.70;;;;;;;4.52;89.46;98218.34;4976267;28;20707;-67
2021/04/01 05:15:46;;;;;;;9.50;7.83;;;;;;;4.57;90.71;98226.69;4978140;28;20280;-66
2021/04/01 05:18:20;;;;;;;10.40;7.37;;;;;;;4.72;89.81;98227.28;4978650;28;20207;-69
2021/04/01 05:20:51;;;;;;;10.17;9.17;;;;;;;4.81;89.56;98223.13;4980716;28;20308;-68
2021/04/01 05:23:26;;;;;;;11.60;8.10;;;;;;;4.74;89.31;98225.38;4982627;28;20225;-66
2021/04/01 05:26:03;;;;;;;9.97;8.33;;;;;;;4.63;89.62;98230.66;4983716;28;20208;-67
2021/04/01 05:28:32;;;;;;;12.03;8.70;;;;;;;4.71;89.80;98227.41;4980827;28;20208;-68
2021/04/01 05:31:20;;;;;;;9.67;8.70;;;;;;;4.68;88.63;98225.00;4983843;28;20281;-68
2021/04/01 05:33:49;;;;;;;8.67;7.90;;;;;;;4.65;88.35;98233.97;4982212;28;20236;-68
2021/04/01 05:36:21;;;;;;;8.80;7.30;;;;;;;4.70;87.96;98230.97;4984856;28;20217;-66
2021/04/01 05:38:48;;;;;;;9.60;7.57;;;;;;;4.69;88.11;98229.31;4979783;28;20228;-70
2021/04/01 05:41:16;;;;;;;9.03;8.13;;;;;;;4.82;87.31;98234.44;4983152;28;20202;-68
2021/04/01 05:43:46;;;;;;;11.07;7.83;;;;;;;4.78;87.78;98234.69;4982827;28;20729;-67
2021/04/01 05:46:18;;;;;;;9.60;8.57;;;;;;;4.85;87.35;98235.03;4980548;28;20202;-65
2021/04/01 05:48:57;;;;;;;11.90;9.47;;;;;;;5.04;85.89;98231.78;4982188;28;20212;-67
2021/04/01 06:03:11;;;;;;;8.70;7.90;;;;;;;5.44;83.81;98245.28;4982183;28;20804;-69
2021/04/01 06:05:40;;;;;;;9.40;7.73;;;;;;;5.47;84.41;98240.59;4981382;28;20209;-65
2021/04/01 06:08:09;;;;;;;9.10;8.10;;;;;;;5.82;82.48;98233.41;4983815;28;20221;-68
2021/04/01 06:10:45;;;;;;;10.73;8.30;;;;;;;5.92;80.95;98230.84;4980523;28;20214;-66
2021/04/01 06:13:15;;;;;;;9.13;8.33;;;;;;;6.08;80.75;98233.88;4980351;28;20608;-69
2021/04/01 06:15:46;;;;;;;11.47;8.63;;;;;;;6.18;79.93;98235.72;4980376;28;20240;-67
2021/04/01 06:18:14;;;;;;;9.60;7.53;;;;;;;6.31;79.31;98239.00;4982334;28;20586;-68
2021/04/01 06:20:43;;;;;;;9.07;8.17;;;;;;;6.42;78.96;98234.59;4984153;28;20205;-66
2021/04/01 06:23:14;;;;;;;9.83;8.40;;;;;;;6.38;78.90;98239.28;4980597;28;20524;-67
2021/04/01 06:25:41;;;;;;;9.23;8.17;;;;;;;6.47;78.87;98238.50;4980291;28;20573;-68
2021/04/01 06:28:12;;;;;;;10.80;9.10;;;;;;;6.67;78.00;98241.22;4981510;28;20699;-66
2021/04/01 06:30:46;;;;;;;9.87;8.20;;;;;;;6.75;77.71;98235.28;4981499;28;20209;-70
2021/04/01 06:33:14;;;;;;;8.43;7.63;;;;;;;6.90;77.98;98235.75;4978792;28;20238;-67
2021/04/01 06:35:45;;;;;;;10.70;8.20;;;;;;;6.90;77.83;98230.47;4979038;28;20230;-66
2021/04/01 06:38:22;;;;;;;10.00;8.33;;;;;;;7.17;76.75;98240.38;4980931;28;20744;-66
2021/04/01 06:40:52;;;;;;;11.47;8.63;;;;;;;7.17;77.32;98240.38;4980848;28;20209;-68
2021/04/01 06:43:39;;;;;;;12.90;9.83;;;;;;;7.42;74.02;98243.47;4982879;28;20694;-69
2021/04/01 06:46:08;;;;;;;10.93;8.97;;;;;;;7.62;73.35;98238.19;4978191;28;21157;-66
2021/04/01 06:48:54;;;;;;;9.53;8.63;;;;;;;7.71;72.93;98242.63;4980862;28;20206;-70
2021/04/01 06:51:25;;;;;;;12.50;9.20;;;;;;;7.96;72.86;98243.03;4981226;28;20229;-69
2021/04/01 06:54:05;;;;;;;10.17;9.00;;;;;;;8.06;72.10;98246.47;4981486;28;20600;-66
2021/04/01 06:56:57;;;;;;;10.63;9.33;;;;;;;8.20;71.70;98245.19;4980068;28;21047;-68
2021/04/01 06:59:38;;;;;;;9.77;8.77;;;;;;;8.52;70.25;98240.53;4978398;28;20201;-69
2021/04/01 07:02:20;;;;;;;10.20;9.00;;;;;;;8.65;69.91;98233.13;4981734;28;20225;-67
2021/04/01 07:04:50;;;;;;;9.73;8.83;;;;;;;8.93;69.50;98233.16;4979883;28;20295;-69
2021/04/01 07:07:19;;;;;;;9.90;8.33;;;;;;;9.25;68.82;98229.16;4982060;28;20941;-68
2021/04/01 07:10:06;;;;;;;11.30;10.07;;;;;;;9.33;68.78;98232.91;4980833;28;20205;-70
2021/04/01 07:12:35;;;;;;;12.87;9.03;;;;;;;9.53;67.70;98236.25;4981384;28;20237;-66
2021/04/01 07:15:08;;;;;;;11.67;8.67;;;;;;;9.77;67.01;98238.25;4980901;28;20245;-68
2021/04/01 07:17:39;;;;;;;11.10;8.40;;;;;;;10.01;65.75;98242.06;4983594;28;20208;-70
2021/04/01 07:32:17;;;;;;;11.73;9.17;;;;;;;11.04;60.37;98237.00;4920728;29;20613;-71
2021/04/01 07:34:57;;;;;;;13.27;9.43;;;;;;;11.44;59.42;98238.94;4918395;29;20326;-70
2021/04/01 07:48:41;;;;;;;13.80;10.20;;;;;;;12.61;54.63;98225.59;4979968;28;20202;-70
2021/04/01 07:51:10;;;;;;;12.17;10.33;;;;;;;12.58;56.15;98221.44;4975734;28;20205;-69
2021/04/01 07:53:37;;;;;;;12.13;10.03;;;;;;;13.08;54.34;98230.03;4981144;28;20232;-72
2021/04/01 07:56:10;;;;;;;12.27;9.90;;;;;;;13.19;53.04;98223.50;4979588;28;20213;-69
2021/04/01 07:58:58;;;;;;;13.70;8.77;;;;;;;13.28;53.13;98234.94;4981137;28;20203;-67
2021/04/01 08:01:43;;;;;;;15.33;9.47;;;;;;;13.53;52.49;98229.47;4978310;28;20210;-72
2021/04/01 08:04:10;;;;;;;9.77;8.77;;;;;;;13.72;52.77;98225.50;4977053;28;20852;-69
2021/04/01 08:06:38;;;;;;;13.67;9.77;;;;;;;13.90;53.10;98225.19;4979991;28;20209;-71
2021/04/01 08:09:07;;;;;;;11.57;9.50;;;;;;;14.16;52.29;98223.97;4979246;28;20205;-69
2021/04/01 08:11:39;;;;;;;12.73;9.73;;;;;;;14.49;51.11;98231.63;4976450;28;20210;-69
2021/04/01 08:14:11;;;;;;;12.50;9.87;;;;;;;14.54;50.28;98229.22;4974423;28;20229;-69
2021/04/01 08:16:48;;;;;;;15.47;10.53;;;;;;;14.87;49.74;98220.88;4979611;28;20235;-70
2021/04/01 08:19:19;;;;;;;12.07;10.77;;;;;;;15.00;49.50;98228.22;4979724;28;20222;-67
2021/04/01 08:21:58;;;;;;;13.77;10.87;;;;;;;15.53;46.81;98227.16;4979082;28;20215;-69
2021/04/01 08:24:50;;;;;;;13.70;10.23;;;;;;;15.48;47.01;98219.69;4977828;28;20425;-69
2021/04/01 08:27:44;;;;;;;11.07;10.00;;;;;;;15.24;47.84;98207.53;4981422;28;20260;-69
2021/04/01 08:33:53;;;;;;;15.23;10.43;;;;;;;15.43;47.53;98210.63;4965636;28;20721;-70
2021/04/01 08:36:46;;;;;;;13.30;10.70;;;;;;;15.51;47.67;98210.47;4976456;28;20778;-68
2021/04/01 08:39:34;;;;;;;16.73;10.57;;;;;;;15.81;46.86;98205.00;4977126;28;20222;-70
2021/04/01 08:42:46;;;;;;;16.60;10.67;;;;;;;16.22;46.50;98208.81;4979565;28;20685;-67
2021/04/01 08:45:39;;;;;;;11.83;10.63;;;;;;;16.62;45.55;98208.25;4977633;28;20213;-70
2021/04/01 08:48:56;;;;;;;17.40;11.30;;;;;;;16.79;45.21;98204.22;4977736;28;20216;-69
2021/04/01 08:51:43;;;;;;;13.33;11.67;;;;;;;17.11;43.53;98205.59;4915708;29;20313;-70
2021/04/01 08:54:15;;;;;;;14.80;10.87;;;;;;;17.20;42.75;98207.91;4977705;28;20244;-66
2021/04/01 08:56:52;;;;;;;12.37;11.10;;;;;;;17.27;43.40;98199.06;4979798;28;20231;-70
2021/04/01 08:59:28;;;;;;;16.63;11.07;;;;;;;17.78;41.94;98200.38;4979632;28;20224;-69
2021/04/01 09:01:59;;;;;;;13.27;11.37;;;;;;;18.14;41.21;98201.84;4980631;28;20674;-68
2021/04/01 09:04:29;;;;;;;13.27;11.17;;;;;;;18.06;42.15;98202.88;4975767;28;21388;-67
2021/04/01 09:06:59;;;;;;;14.57;11.30;;;;;;;18.29;41.37;98203.44;4977321;28;20264;-68
2021/04/01 09:09:30;;;;;;;17.00;11.73;;;;;;;18.64;40.05;98198.63;4978542;28;20209;-67
2021/04/01 09:12:07;;;;;;;16.83;11.00;;;;;;;18.42;40.50;98189.19;4978205;28;20210;-69
2021/04/01 09:14:35;;;;;;;13.33;11.17;;;;;;;18.42;40.80;98205.28;4983521;28;20616;-67
2021/04/01 09:17:07;;;;;;;13.33;11.97;;;;;;;18.41;41.44;98198.28;4981327;28;20209;-69
2021/04/01 09:19:35;;;;;;;17.13;12.93;;;;;;;18.32;42.12;98194.97;4973900;28;20698;-70
2021/04/01 09:22:03;;;;;;;15.43;11.80;;;;;;;18.35;40.20;98187.34;4980595;28;20229;-68
2021/04/01 09:24:33;;;;;;;16.00;12.63;;;;;;;18.34;41.40;98191.06;4983388;28;20593;-68
2021/04/01 09:27:00;;;;;;;16.80;11.77;;;;;;;18.79;39.83;98186.81;4975605;28;20289;-66
2021/04/01 09:29:38;;;;;;;19.50;13.20;;;;;;;18.33;40.75;98186.75;4977112;28;20205;-68
2021/04/01 09:32:07;;;;;;;14.83;11.47;;;;;;;18.55;40.48;98185.66;4982952;28;20205;-67
2021/04/01 09:34:34;;;;;;;18.23;13.13;;;;;;;18.74;39.74;98179.38;4978701;28;20308;-65
2021/04/01 09:37:09;;;;;;;16.53;12.07;;;;;;;18.60;39.99;98183.16;4972595;28;20225;-67
2021/04/01 09:39:37;;;;;;;14.73;11.57;;;;;;;18.70;40.07;98175.47;4979146;28;20205;-69
2021/04/01 09:42:06;;;;;;;18.73;13.40;;;;;;;18.82;39.65;98178.31;4983422;28;20216;-71
2021/04/01 09:44:33;;;;;;;18.40;12.93;;;;;;;18.86;39.71;98176.06;4982722;28;20578;-67
2021/04/01 09:47:08;;;;;;;15.00;12.10;;;;;;;19.17;38.92;98175.28;4982171;28;20431;-67
2021/04/01 09:49:47;;;;;;;16.97;12.17;;;;;;;19.11;38.18;98178.00;4981557;28;20335;-65
2021/04/01 09:52:14;;;;;;;17.77;12.90;;;;;;;19.00;38.64;98174.16;4976285;28;20233;-69
2021/04/01 09:54:46;;;;;;;14.87;12.53;;;;;;;19.31;38.59;98164.47;4981426;28;20225;-65
2021/04/01 09:57:14;;;;;;;17.63;13.63;;;;;;;19.30;38.50;98165.50;4982863;28;20713;-66
2021/04/01 09:59:48;;;;;;;19.63;13.13;;;;;;;19.47;37.44;98169.34;4981557;28;20210;-67
2021/04/01 10:02:23;;;;;;;15.03;13.17;;;;;;;19.71;36.67;98171.44;4976202;28;20245;-65
2021/04/01 10:04:56;;;;;;;15.03;13.17;;;;;;;19.81;36.42;98171.75;4979327;28;20237;-67
2021/04/01 10:07:24;;;;;;;18.47;13.63;;;;;;;19.73;36.32;98170.19;4981038;28;20836;-67
2021/04/01 10:09:53;;;;;;;20.53;14.70;;;;;;;19.55;36.87;98173.63;4977106;28;20323;-69
2021/04/01 10:12:21;;;;;;;16.57;13.10;;;;;;;19.58;36.16;98169.66;4978937;28;20237;-66
2021/04/01 10:14:49;;;;;;;17.10;13.43;;;;;;;19.64;36.56;98164.25;4985053;28;20597;-70
2021/04/01 10:17:20;;;;;;;17.50;13.10;;;;;;;19.70;36.48;98161.72;4982909;28;20237;-67
2021/04/01 10:19:51;;;;;;;19.80;14.93;;;;;;;19.86;35.15;98158.47;4982032;28;20237;-67
2021/04/01 10:22:20;;;;;;;18.43;13.90;;;;;;;19.65;35.84;98168.56;4981199;28;20229;-66
2021/04/01 10:25:13;;;;;;;15.90;14.00;;;;;;;19.62;36.38;98154.75;4979801;28;20331;-67
2021/04/01 10:27:47;;;;;;;27.23;14.67;;;;;;;20.03;35.61;98166.03;4981253;28;20203;-66
2021/04/01 10:30:15;;;;;;;20.93;14.97;;;;;;;19.83;35.47;98156.22;4983876;28;20236;-68
2021/04/01 10:32:51;;;;;;;24.23;15.40;;;;;;;20.46;34.64;98153.59;4981222;28;20229;-67
2021/04/01 10:35:23;;;;;;;16.97;15.13;;;;;;;20.52;34.14;98150.00;4982182;28;20215;-69
2021/04/01 10:37:52;;;;;;;21.47;16.60;;;;;;;20.81;33.32;98145.72;4983998;28;20201;-69
2021/04/01 10:40:20;;;;;;;18.67;15.33;;;;;;;20.91;33.60;98141.66;4983045;28;20202;-67
2021/04/01 10:42:50;;;;;;;18.33;16.20;;;;;;;21.27;32.62;98131.84;4981891;28;20230;-68
2021/04/01 10:45:20;;;;;;;18.30;16.27;;;;;;;21.28;31.63;98132.66;4982956;28;20202;-68
2021/04/01 10:47:53;;;;;;;23.53;16.63;;;;;;;21.03;33.00;98128.25;4982881;28;20210;-66
2021/04/01 10:50:21;;;;;;;23.63;18.17;;;;;;;21.23;31.78;98126.09;4981203;28;20205;-69
2021/04/01 10:52:48;;;;;;;18.80;15.00;;;;;;;21.57;31.88;98124.75;4980862;28;20276;-69
2021/04/01 10:55:15;;;;;;;18.60;16.67;;;;;;;22.31;30.93;98118.09;4983259;28;20325;-70
2021/04/01 10:57:42;;;;;;;19.13;16.27;;;;;;;22.64;29.82;98112.03;4979710;28;20209;-67
2021/04/01 11:00:14;;;;;;;20.10;17.13;;;;;;;22.95;29.22;98115.31;4983672;28;20213;-67
2021/04/01 11:02:44;;;;;;;19.17;16.87;;;;;;;23.01;28.65;98107.31;4979206;28;20233;-69
2021/04/01 11:05:15;;;;;;;19.63;16.40;;;;;;;22.83;29.13;98103.75;4979955;28;20202;-66
2021/04/01 11:07:47;;;;;;;19.23;16.57;;;;;;;23.20;27.84;98103.34;4979526;28;20230;-68
2021/04/01 11:10:19;;;;;;;19.50;17.47;;;;;;;23.15;27.20;98103.25;4979664;28;20210;-68
2021/04/01 11:12:50;;;;;;;18.33;16.33;;;;;;;22.46;28.43;98102.22;4978141;28;21113;-67
2021/04/01 11:15:19;;;;;;;18.53;16.17;;;;;;;22.38;28.81;98097.16;4977484;28;20211;-66
2021/04/01 11:17:51;;;;;;;18.97;15.50;;;;;;;22.11;28.68;98103.91;4980579;28;20859;-68
2021/04/01 11:20:22;;;;;;;18.63;15.90;;;;;;;22.00;28.72;98093.97;4977469;28;20209;-66
2021/04/01 11:23:04;;;;;;;16.53;14.47;;;;;;;21.89;28.81;98094.78;4979849;28;20729;-66
2021/04/01 11:25:31;;;;;;;17.13;15.33;;;;;;;21.78;28.92;98091.00;4977991;28;20206;-66
2021/04/01 11:27:58;;;;;;;17.57;15.57;;;;;;;21.27;29.68;98101.38;4979978;28;20217;-68
2021/04/01 11:30:48;;;;;;;18.20;16.00;;;;;;;21.68;29.66;98092.44;4980381;28;20228;-68
2021/04/01 11:33:28;;;;;;;17.10;14.50;;;;;;;21.80;29.63;98088.94;4979428;28;20233;-66
2021/04/01 11:36:08;;;;;;;22.97;17.40;;;;;;;22.06;29.04;98090.31;4980125;28;20232;-67
2021/04/01 11:38:41;;;;;;;19.73;15.57;;;;;;;22.14;29.24;98082.91;4977775;28;20221;-67
2021/04/01 11:41:09;;;;;;;15.93;14.10;;;;;;;22.47;28.87;98084.16;4980487;28;20210;-68
2021/04/01 11:43:37;;;;;;;21.40;15.70;;;;;;;22.94;28.27;98080.47;4979487;28;20228;-67
2021/04/01 11:46:16;;;;;;;21.07;17.13;;;;;;;23.01;27.88;98073.03;4978856;28;20208;-67
2021/04/01 11:48:44;;;;;;;19.23;17.27;;;;;;;23.51;27.58;98076.03;4986475;28;20238;-68
2021/04/01 11:51:20;;;;;;;17.30;15.50;;;;;;;24.51;26.21;98069.00;4996326;28;20429;-69
2021/04/01 11:53:47;;;;;;;16.53;14.77;;;;;;;23.67;26.85;98079.78;4977903;28;20235;-69
2021/04/01 11:56:17;;;;;;;16.80;15.00;;;;;;;23.92;26.16;98071.22;4999028;28;20265;-69
2021/04/01 11:58:45;;;;;;;16.67;14.97;;;;;;;23.61;27.55;98078.06;4998942;28;20212;-65
2021/04/01 12:01:18;;;;;;;17.77;15.20;;;;;;;23.04;27.69;98067.13;4999034;28;20208;-66
2021/04/01 12:04:00;;;;;;;11.63;10.43;;;;;;;22.55;27.44;98079.22;5000717;28;20750;-67
2021/04/01 12:06:29;;;;;;;13.67;11.87;;;;;;;22.19;27.87;98073.06;4999616;28;20207;-65
2021/04/01 12:08:57;;;;;;;10.67;9.67;;;;;;;22.37;27.33;98065.84;5001025;28;20622;-66
2021/04/01 12:11:24;;;;;;;10.80;9.70;;;;;;;22.57;26.02;98061.94;4998592;28;20208;-66
2021/04/01 12:13:51;;;;;;;10.30;8.90;;;;;;;22.88;26.05;98068.72;4999920;28;20221;-68
2021/04/01 12:16:20;;;;;;;15.03;11.03;;;;;;;23.26;25.97;98055.59;5002294;28;20224;-67
2021/04/01 12:18:47;;;;;;;11.40;10.20;;;;;;;23.85;24.91;98062.47;5001220;28;20228;-68
2021/04/01 12:21:14;;;;;;;11.00;9.87;;;;;;;23.63;25.40;98055.09;5001068;28;20201;-66
2021/04/01 12:23:47;;;;;;;11.70;9.40;;;;;;;23.51;26.11;98051.69;4998551;28;20902;-67
2021/04/01 12:26:14;;;;;;;10.60;9.37;;;;;;;22.89;25.08;98074.94;4998908;28;20616;-67
2021/04/01 12:28:41;;;;;;;15.33;10.07;;;;;;;22.61;25.54;98065.81;4999636;28;20376;-68
2021/04/01 12:31:14;;;;;;;13.00;9.30;;;;;;;22.40;26.21;98055.41;5000536;28;20209;-67
2021/04/01 12:33:48;;;;;;;10.37;9.23;;;;;;;22.15;26.99;98049.47;5005425;28;20291;-68
2021/04/01 12:36:16;;;;;;;11.53;10.13;;;;;;;22.14;27.07;98053.22;5003197;28;20228;-69
2021/04/01 12:38:45;;;;;;;10.53;8.53;;;;;;;22.00;26.82;98066.16;5001795;28;20288;-68